createdAt,value
2019-06-20T00:02:07.643Z,89.24
2019-06-20T00:04:35.038Z,89.48
2019-06-20T00:07:02.387Z,90.01
2019-06-20T00:09:29.423Z,90.27
2019-06-20T00:11:56.486Z,90.33
2019-06-20T00:14:23.515Z,90.24
2019-06-20T00:16:50.826Z,90.34
2019-06-20T00:19:17.964Z,90.35
2019-06-20T00:21:45.008Z,90.75
2019-06-20T00:24:12.049Z,90.85
2019-06-20T00:26:39.379Z,90.75
2019-06-20T00:29:06.756Z,90.80
2019-06-20T00:31:33.812Z,90.81
2019-06-20T00:34:00.851Z,91.20
2019-06-20T00:36:27.907Z,91.23
2019-06-20T00:38:55.234Z,91.17
2019-06-20T00:41:22.287Z,91.33
2019-06-20T00:43:49.659Z,91.08
2019-06-20T00:46:16.955Z,91.13
2019-06-20T00:48:44.368Z,91.15
2019-06-20T00:51:11.717Z,90.40
2019-06-20T00:53:38.759Z,90.53
2019-06-20T00:56:06.059Z,90.49
2019-06-20T00:58:33.218Z,90.75
2019-06-20T01:01:00.434Z,90.50
2019-06-20T01:03:28.808Z,90.28
2019-06-20T01:05:56.141Z,90.45
2019-06-20T01:08:23.494Z,90.20
2019-06-20T01:10:50.550Z,90.48
2019-06-20T01:13:32.464Z,90.29
2019-06-20T01:15:46.586Z,90.08
2019-06-20T01:18:13.632Z,90.68
2019-06-20T01:20:40.683Z,90.80
2019-06-20T01:23:08.039Z,90.81
2019-06-20T01:25:35.398Z,90.94
2019-06-20T01:28:02.684Z,91.11
2019-06-20T01:30:31.032Z,91.15
2019-06-20T01:32:58.085Z,91.31
2019-06-20T01:35:25.584Z,91.45
2019-06-20T01:37:52.622Z,91.57
2019-06-20T01:40:19.658Z,91.76
2019-06-20T01:42:47.000Z,91.37
2019-06-20T01:45:14.336Z,91.65
2019-06-20T01:47:41.398Z,91.64
2019-06-20T01:50:08.737Z,91.46
2019-06-20T01:52:35.790Z,91.33
2019-06-20T01:55:02.903Z,91.48
2019-06-20T01:57:29.957Z,91.31
2019-06-20T01:59:57.245Z,91.35
2019-06-20T02:02:24.296Z,91.15
2019-06-20T02:04:51.657Z,90.84
2019-06-20T02:07:19.001Z,90.72
2019-06-20T02:09:46.313Z,90.64
2019-06-20T02:12:13.707Z,90.87
2019-06-20T02:14:40.752Z,90.82
2019-06-20T02:17:07.851Z,90.75
2019-06-20T02:19:35.261Z,90.79
2019-06-20T02:22:02.591Z,90.75
2019-06-20T02:24:29.636Z,90.86
2019-06-20T02:26:56.951Z,90.80
2019-06-20T02:29:23.993Z,90.91
2019-06-20T02:31:51.128Z,90.98
2019-06-20T02:34:19.594Z,90.93
2019-06-20T02:36:46.659Z,90.94
2019-06-20T02:39:13.700Z,91.02
2019-06-20T02:41:41.049Z,90.92
2019-06-20T02:44:28.477Z,91.08
2019-06-20T02:46:37.153Z,90.59
2019-06-20T02:49:04.209Z,89.77
2019-06-20T02:51:31.244Z,89.36
2019-06-20T02:53:58.307Z,91.06
2019-06-20T02:56:25.589Z,87.31
2019-06-20T02:58:52.644Z,89.55
2019-06-20T03:01:19.924Z,90.05
2019-06-20T03:03:47.261Z,92.17
2019-06-20T03:06:14.303Z,91.87
2019-06-20T03:08:42.708Z,91.92
2019-06-20T03:11:09.746Z,92.06
2019-06-20T03:13:37.071Z,92.24
2019-06-20T03:16:04.118Z,91.83
2019-06-20T03:18:31.173Z,91.35
2019-06-20T03:20:58.211Z,91.68
2019-06-20T03:23:25.575Z,91.61
2019-06-20T03:25:52.921Z,91.43
2019-06-20T03:28:20.300Z,91.20
2019-06-20T03:30:47.651Z,91.36
2019-06-20T03:33:14.691Z,91.22
2019-06-20T03:35:42.058Z,91.42
2019-06-20T03:38:09.115Z,91.51
2019-06-20T03:40:36.225Z,91.48
2019-06-20T03:43:03.591Z,91.66
2019-06-20T03:45:30.637Z,92.06
2019-06-20T03:47:57.691Z,92.34
2019-06-20T03:50:25.962Z,92.24
2019-06-20T03:52:53.019Z,92.05
2019-06-20T03:55:20.058Z,92.13
2019-06-20T03:57:47.110Z,92.07
2019-06-20T04:00:14.156Z,91.88
2019-06-20T04:02:41.520Z,91.00
2019-06-20T04:05:08.572Z,91.38
2019-06-20T04:07:35.612Z,91.09
2019-06-20T04:10:02.966Z,91.45
2019-06-20T04:12:31.066Z,91.60
2019-06-20T04:14:58.363Z,91.39
2019-06-20T04:17:25.453Z,91.18
2019-06-20T04:19:52.810Z,91.19
2019-06-20T04:22:19.855Z,91.14
2019-06-20T04:24:46.913Z,91.30
2019-06-20T04:27:13.949Z,91.32
2019-06-20T04:29:41.294Z,91.63
2019-06-20T04:32:08.663Z,91.48
2019-06-20T04:34:35.717Z,90.40
2019-06-20T04:37:02.762Z,90.75
2019-06-20T04:39:29.820Z,91.30
2019-06-20T04:41:57.148Z,91.83
2019-06-20T04:44:24.451Z,90.99
2019-06-20T04:46:51.494Z,90.02
2019-06-20T04:49:19.852Z,87.55
2019-06-20T04:51:47.077Z,89.02
2019-06-20T04:54:14.112Z,89.86
2019-06-20T04:56:41.478Z,90.62
2019-06-20T04:59:08.532Z,91.43
2019-06-20T05:01:35.572Z,91.83
2019-06-20T05:04:02.939Z,92.19
2019-06-20T05:06:29.989Z,92.50
2019-06-20T05:08:57.047Z,93.23
2019-06-20T05:11:25.155Z,93.39
2019-06-20T05:13:52.528Z,93.85
2019-06-20T05:16:19.566Z,94.00
2019-06-20T05:18:46.845Z,94.07
2019-06-20T05:21:13.900Z,94.60
2019-06-20T05:23:43.137Z,94.34
2019-06-20T05:26:10.184Z,94.35
2019-06-20T05:28:37.244Z,94.43
2019-06-20T05:31:04.281Z,94.99
2019-06-20T05:33:31.327Z,95.29
2019-06-20T05:35:58.379Z,95.60
2019-06-20T05:38:25.681Z,95.45
2019-06-20T05:40:52.730Z,95.70
2019-06-20T05:43:20.098Z,95.88
2019-06-20T05:45:48.761Z,95.17
2019-06-20T05:48:16.459Z,95.27
2019-06-20T05:50:43.504Z,95.57
2019-06-20T05:53:10.705Z,95.94
2019-06-20T05:55:38.108Z,96.03
2019-06-20T05:58:05.148Z,95.89
2019-06-20T06:00:32.507Z,95.76
2019-06-20T06:02:59.544Z,95.69
2019-06-20T06:05:26.681Z,95.56
2019-06-20T06:07:53.959Z,95.43
2019-06-20T06:10:21.021Z,94.99
2019-06-20T06:12:48.076Z,93.68
2019-06-20T06:15:15.127Z,93.68
2019-06-20T06:17:42.457Z,93.72
2019-06-20T06:20:09.946Z,93.02
2019-06-20T06:22:40.364Z,93.33
2019-06-20T06:27:41.850Z,93.16
2019-06-20T06:30:09.879Z,92.65
2019-06-20T06:32:40.303Z,92.37
2019-06-20T06:35:05.670Z,91.84
2019-06-20T06:37:33.093Z,90.92
2019-06-20T06:40:00.157Z,89.27
2019-06-20T06:42:27.199Z,84.57
2019-06-20T06:47:39.820Z,79.48
2019-06-20T06:50:06.878Z,76.74
2019-06-20T06:52:34.203Z,74.05
2019-06-20T06:55:01.274Z,74.97
2019-06-20T06:57:28.322Z,74.77
2019-06-20T06:59:55.357Z,73.42
2019-06-20T07:02:22.708Z,72.13
2019-06-20T07:04:49.760Z,72.17
2019-06-20T07:07:16.820Z,73.76
2019-06-20T07:09:44.156Z,73.77
2019-06-20T07:12:11.524Z,73.45
2019-06-20T07:14:42.405Z,74.02
2019-06-20T07:17:07.430Z,73.21
2019-06-20T07:19:34.469Z,73.40
2019-06-20T07:22:01.953Z,71.18
2019-06-20T07:24:28.997Z,69.57
2019-06-20T07:29:39.534Z,67.83
2019-06-20T07:32:06.967Z,65.98
2019-06-20T07:34:34.016Z,65.17
2019-06-20T07:37:01.339Z,63.53
2019-06-20T07:39:28.378Z,62.16
2019-06-20T07:41:55.760Z,59.33
2019-06-20T07:44:23.114Z,58.86
2019-06-20T07:46:50.465Z,58.40
2019-06-20T07:49:17.507Z,59.19
2019-06-20T07:51:44.564Z,57.70
2019-06-20T07:54:11.923Z,56.40
2019-06-20T07:56:38.987Z,55.05
2019-06-20T07:59:06.034Z,54.45
2019-06-20T08:01:33.357Z,55.39
2019-06-20T08:04:07.606Z,55.70
2019-06-20T08:06:34.936Z,53.72
2019-06-20T08:09:02.292Z,56.61
2019-06-20T08:11:31.108Z,58.47
2019-06-20T08:13:58.146Z,57.89
2019-06-20T08:16:25.199Z,58.46
2019-06-20T08:18:52.502Z,56.76
2019-06-20T08:21:19.555Z,58.11
2019-06-20T08:23:46.923Z,53.77
2019-06-20T08:26:13.968Z,54.41
2019-06-20T08:28:41.352Z,53.59
2019-06-20T08:31:08.371Z,53.04
2019-06-20T08:33:35.431Z,52.14
2019-06-20T08:36:02.778Z,51.94
2019-06-20T08:38:31.175Z,50.37
2019-06-20T08:40:58.553Z,50.78
2019-06-20T08:43:26.051Z,50.07
2019-06-20T08:45:53.086Z,48.31
2019-06-20T08:48:20.384Z,48.87
2019-06-20T08:50:47.418Z,48.39
2019-06-20T08:53:14.775Z,46.51
2019-06-20T08:55:41.822Z,47.93
2019-06-20T08:58:08.875Z,49.65
2019-06-20T09:00:36.235Z,50.99
2019-06-20T09:05:45.822Z,51.64
2019-06-20T09:08:12.871Z,49.63
2019-06-20T09:10:39.927Z,51.87
2019-06-20T09:13:07.261Z,50.24
2019-06-20T09:15:34.593Z,52.18
2019-06-20T09:18:02.891Z,54.31
2019-06-20T09:20:30.480Z,55.69
2019-06-20T09:22:58.828Z,55.55
2019-06-20T09:25:25.998Z,54.79
2019-06-20T09:27:54.413Z,52.72
2019-06-20T09:30:22.715Z,50.90
2019-06-20T09:32:52.252Z,51.48
2019-06-20T09:35:18.963Z,50.77
2019-06-20T09:37:46.017Z,51.01
2019-06-20T09:40:13.064Z,50.00
2019-06-20T09:42:40.434Z,51.30
2019-06-20T09:45:08.722Z,50.16
2019-06-20T09:47:36.047Z,49.01
2019-06-20T09:50:03.426Z,48.02
2019-06-20T09:52:30.489Z,49.60
2019-06-20T09:54:58.326Z,48.48
2019-06-20T09:57:25.413Z,46.56
2019-06-20T10:00:03.188Z,47.42
2019-06-20T10:02:21.915Z,48.00
2019-06-20T10:04:49.501Z,47.55
2019-06-20T10:07:17.954Z,49.25
2019-06-20T10:09:46.672Z,49.06
2019-06-20T10:12:14.425Z,47.02
2019-06-20T10:14:41.787Z,47.02
2019-06-20T10:17:08.817Z,45.79
2019-06-20T10:19:36.186Z,44.23
2019-06-20T10:22:03.224Z,43.52
2019-06-20T10:24:30.574Z,41.13
2019-06-20T10:26:58.590Z,43.22
2019-06-20T10:29:25.998Z,42.44
2019-06-20T10:31:53.367Z,39.95
2019-06-20T10:34:20.502Z,43.16
2019-06-20T10:36:48.163Z,43.58
2019-06-20T10:39:16.402Z,43.93
2019-06-20T10:41:44.855Z,44.16
2019-06-20T10:44:12.497Z,42.08
2019-06-20T10:46:39.544Z,41.60
2019-06-20T10:49:06.605Z,40.50
2019-06-20T10:51:33.931Z,42.87
2019-06-20T10:54:01.308Z,46.04
2019-06-20T10:56:28.644Z,46.31
2019-06-20T10:58:56.001Z,48.50
2019-06-20T11:01:23.045Z,50.89
2019-06-20T11:03:50.400Z,50.58
2019-06-20T11:06:17.438Z,50.44
2019-06-20T11:08:45.137Z,49.23
2019-06-20T11:11:13.537Z,49.57
2019-06-20T11:13:42.124Z,50.93
2019-06-20T11:16:09.538Z,48.26
2019-06-20T11:18:38.310Z,48.18
2019-06-20T11:21:05.492Z,46.71
2019-06-20T11:23:32.545Z,48.32
2019-06-20T11:25:59.585Z,49.22
2019-06-20T11:28:27.973Z,50.23
2019-06-20T11:31:00.141Z,50.99
2019-06-20T11:33:23.784Z,51.25
2019-06-20T11:35:51.138Z,50.69
2019-06-20T11:38:18.489Z,51.50
2019-06-20T11:40:45.854Z,50.15
2019-06-20T11:43:13.201Z,51.74
2019-06-20T11:45:40.926Z,52.37
2019-06-20T11:48:07.928Z,53.67
2019-06-20T11:50:36.300Z,54.54
2019-06-20T11:53:03.484Z,57.09
2019-06-20T11:55:30.779Z,64.53
2019-06-20T11:57:57.822Z,66.24
2019-06-20T12:00:24.875Z,69.79
2019-06-20T12:02:52.275Z,69.61
2019-06-20T12:05:19.323Z,69.55
2019-06-20T12:07:47.908Z,68.24
2019-06-20T12:10:15.137Z,68.87
2019-06-20T12:12:42.665Z,62.35
2019-06-20T12:15:10.048Z,60.09
2019-06-20T12:17:39.330Z,57.05
2019-06-20T12:20:05.842Z,58.07
2019-06-20T12:22:33.137Z,58.50
2019-06-20T12:25:00.192Z,56.28
2019-06-20T12:27:27.540Z,54.26
2019-06-20T12:29:55.803Z,54.99
2019-06-20T12:32:23.091Z,55.60
2019-06-20T12:34:50.390Z,56.36
2019-06-20T12:37:17.506Z,56.60
2019-06-20T12:39:44.586Z,56.09
2019-06-20T12:42:11.631Z,57.51
2019-06-20T12:44:40.113Z,57.73
2019-06-20T12:47:07.162Z,58.89
2019-06-20T12:49:34.223Z,62.03
2019-06-20T12:52:01.278Z,62.88
2019-06-20T12:54:30.269Z,64.11
2019-06-20T12:56:57.493Z,64.34
2019-06-20T12:59:24.815Z,65.67
2019-06-20T13:01:52.114Z,67.06
2019-06-20T13:04:19.171Z,67.33
2019-06-20T13:06:46.969Z,67.59
2019-06-20T13:09:14.115Z,68.81
2019-06-20T13:11:41.174Z,70.13
2019-06-20T13:14:08.454Z,70.87
2019-06-20T13:16:35.796Z,72.03
2019-06-20T13:19:02.831Z,70.84
2019-06-20T13:21:29.879Z,70.08
2019-06-20T13:23:57.171Z,69.53
2019-06-20T13:26:24.219Z,66.75
2019-06-20T13:29:03.273Z,62.90
2019-06-20T13:31:21.260Z,60.67
2019-06-20T13:33:48.952Z,60.44
2019-06-20T13:36:16.070Z,60.52
2019-06-20T13:38:44.458Z,62.75
2019-06-20T13:41:11.898Z,62.67
2019-06-20T13:43:38.938Z,64.64
2019-06-20T13:46:06.290Z,63.97
2019-06-20T13:48:33.330Z,61.77
2019-06-20T13:51:00.648Z,62.28
2019-06-20T13:53:27.754Z,63.19
2019-06-20T13:55:54.818Z,62.62
2019-06-20T13:58:22.155Z,62.92
2019-06-20T14:00:50.870Z,63.26
2019-06-20T14:03:18.117Z,63.54
2019-06-20T14:05:45.534Z,64.02
2019-06-20T14:08:12.887Z,64.73
2019-06-20T14:10:40.296Z,66.53
2019-06-20T14:13:18.620Z,70.55
2019-06-20T14:15:36.058Z,76.76
2019-06-20T14:18:03.111Z,78.99
2019-06-20T14:20:30.489Z,81.94
2019-06-20T14:22:57.859Z,81.14
2019-06-20T14:25:24.914Z,82.42
2019-06-20T14:27:52.243Z,81.81
2019-06-20T14:30:19.285Z,82.89
2019-06-20T14:32:47.234Z,84.52
2019-06-20T14:35:14.286Z,85.34
2019-06-20T14:37:43.439Z,84.05
2019-06-20T14:40:10.556Z,85.44
2019-06-20T14:42:38.911Z,85.44
2019-06-20T14:45:07.643Z,84.32
2019-06-20T14:47:35.741Z,83.21
2019-06-20T14:50:02.772Z,83.89
2019-06-20T14:52:29.831Z,84.21
2019-06-20T14:54:57.137Z,85.46
2019-06-20T14:57:24.506Z,84.59
2019-06-20T14:59:52.643Z,84.87
2019-06-20T15:02:20.132Z,84.57
2019-06-20T15:04:47.868Z,83.83
2019-06-20T15:07:14.923Z,83.55
2019-06-20T15:09:41.960Z,83.64
2019-06-20T15:12:09.048Z,83.10
2019-06-20T15:14:36.066Z,82.58
2019-06-20T15:17:03.455Z,82.06
2019-06-20T15:19:30.506Z,81.75
2019-06-20T15:21:57.598Z,81.61
2019-06-20T15:24:25.698Z,81.13
2019-06-20T15:26:53.965Z,79.70
2019-06-20T15:29:21.276Z,78.81
2019-06-20T15:31:49.035Z,78.82
2019-06-20T15:34:17.693Z,77.71
2019-06-20T15:36:45.045Z,78.19
2019-06-20T15:39:12.087Z,78.41
2019-06-20T15:41:39.552Z,78.37
2019-06-20T15:44:06.599Z,77.69
2019-06-20T15:46:33.878Z,78.70
2019-06-20T15:49:15.334Z,80.03
2019-06-20T15:51:30.019Z,80.71
2019-06-20T15:53:57.357Z,81.04
2019-06-20T15:56:24.579Z,81.60
2019-06-20T15:58:52.601Z,81.55
2019-06-20T16:01:19.643Z,81.65
2019-06-20T16:03:46.713Z,80.22
2019-06-20T16:06:14.018Z,81.51
2019-06-20T16:08:41.154Z,81.18
2019-06-20T16:11:08.203Z,81.54
2019-06-20T16:13:35.270Z,81.46
2019-06-20T16:16:02.354Z,81.51
2019-06-20T16:18:29.414Z,81.21
2019-06-20T16:20:56.465Z,80.94
2019-06-20T16:23:23.767Z,79.25
2019-06-20T16:25:50.809Z,77.61
2019-06-20T16:28:17.866Z,78.12
2019-06-20T16:30:48.286Z,79.63
2019-06-20T16:33:24.680Z,76.44
2019-06-20T16:35:44.226Z,76.00
2019-06-20T16:38:11.286Z,77.93
2019-06-20T16:40:39.066Z,79.39
2019-06-20T16:43:06.124Z,80.20
2019-06-20T16:45:33.462Z,80.81
2019-06-20T16:48:00.752Z,79.84
2019-06-20T16:50:28.867Z,80.12
2019-06-20T16:52:55.905Z,80.37
2019-06-20T16:55:22.977Z,80.63
2019-06-20T16:57:50.317Z,81.44
2019-06-20T17:00:17.391Z,81.97
2019-06-20T17:02:44.747Z,81.86
2019-06-20T17:05:11.797Z,81.55
2019-06-20T17:07:38.837Z,82.10
2019-06-20T17:10:05.912Z,82.04
2019-06-20T17:12:33.199Z,82.12
2019-06-20T17:15:00.255Z,80.89
2019-06-20T17:17:27.374Z,81.27
2019-06-20T17:19:54.427Z,81.68
2019-06-20T17:22:21.487Z,80.97
2019-06-20T17:24:48.533Z,81.89
2019-06-20T17:27:15.926Z,81.50
2019-06-20T17:29:42.972Z,82.12
2019-06-20T17:32:10.015Z,82.78
2019-06-20T17:34:37.379Z,82.45
2019-06-20T17:37:04.486Z,82.77
2019-06-20T17:39:31.896Z,83.16
2019-06-20T17:41:58.958Z,83.42
2019-06-20T17:44:27.526Z,83.37
2019-06-20T17:46:56.032Z,82.96
2019-06-20T17:49:23.327Z,83.29
2019-06-20T17:51:50.431Z,83.05
2019-06-20T17:54:17.788Z,82.51
2019-06-20T17:56:44.870Z,82.79
2019-06-20T17:59:12.048Z,82.36
2019-06-20T18:01:39.342Z,82.40
2019-06-20T18:04:13.662Z,82.72
2019-06-20T18:06:35.473Z,80.87
2019-06-20T18:09:03.135Z,80.98
2019-06-20T18:11:31.820Z,81.69
2019-06-20T18:13:58.883Z,82.54
2019-06-20T18:16:25.945Z,83.22
2019-06-20T18:18:52.989Z,83.98
2019-06-20T18:21:20.399Z,82.18
2019-06-20T18:23:47.754Z,82.35
2019-06-20T18:26:14.813Z,81.77
2019-06-20T18:28:42.637Z,81.70
2019-06-20T18:31:10.026Z,82.27
2019-06-20T18:33:37.092Z,82.57
2019-06-20T18:36:04.179Z,82.41
2019-06-20T18:38:31.583Z,82.18
2019-06-20T18:40:58.647Z,82.66
2019-06-20T18:43:25.983Z,82.92
2019-06-20T18:45:53.053Z,82.91
2019-06-20T18:48:20.106Z,83.18
2019-06-20T18:50:47.211Z,82.62
2019-06-20T18:53:14.514Z,82.15
2019-06-20T18:55:41.834Z,82.32
2019-06-20T18:58:09.188Z,81.89
2019-06-20T19:00:36.265Z,80.96
2019-06-20T19:03:03.314Z,80.10
2019-06-20T19:05:30.409Z,80.57
2019-06-20T19:07:57.859Z,80.42
2019-06-20T19:10:25.251Z,80.26
2019-06-20T19:12:52.672Z,80.23
2019-06-20T19:15:19.956Z,79.65
2019-06-20T19:17:47.312Z,79.85
2019-06-20T19:20:14.686Z,79.85
2019-06-20T19:22:42.024Z,80.06
2019-06-20T19:25:09.099Z,79.70
2019-06-20T19:27:45.492Z,78.61
2019-06-20T19:30:05.072Z,78.82
2019-06-20T19:32:32.463Z,77.90
2019-06-20T19:35:02.534Z,77.90
2019-06-20T19:37:28.591Z,78.28
2019-06-20T19:39:55.632Z,77.83
2019-06-20T19:42:22.929Z,78.21
2019-06-20T19:44:50.273Z,78.38
2019-06-20T19:47:17.357Z,77.43
2019-06-20T19:49:44.662Z,77.40
2019-06-20T19:52:11.987Z,77.44
2019-06-20T19:54:39.021Z,77.37
2019-06-20T19:57:06.318Z,77.94
2019-06-20T19:59:33.469Z,78.34
2019-06-20T20:02:00.502Z,78.69
2019-06-20T20:04:27.899Z,78.94
2019-06-20T20:06:54.955Z,79.30
2019-06-20T20:09:21.996Z,79.96
2019-06-20T20:11:49.389Z,80.65
2019-06-20T20:14:16.462Z,81.12
2019-06-20T20:16:43.521Z,81.67
2019-06-20T20:19:10.878Z,82.63
2019-06-20T20:21:37.931Z,83.00
2019-06-20T20:24:05.277Z,84.02
2019-06-20T20:26:32.656Z,84.32
2019-06-20T20:28:59.991Z,84.74
2019-06-20T20:31:27.055Z,84.88
2019-06-20T20:33:54.092Z,86.30
2019-06-20T20:36:25.302Z,86.76
2019-06-20T20:38:50.434Z,86.34
2019-06-20T20:41:17.487Z,86.04
2019-06-20T20:43:44.528Z,86.69
2019-06-20T20:46:11.568Z,86.70
2019-06-20T20:48:39.039Z,86.47
2019-06-20T20:51:06.084Z,86.80
2019-06-20T20:53:33.155Z,86.90
2019-06-20T20:56:02.443Z,87.00
2019-06-20T20:58:29.590Z,86.87
2019-06-20T21:00:56.938Z,86.81
2019-06-20T21:03:24.028Z,86.90
2019-06-20T21:05:51.942Z,86.85
2019-06-20T21:08:19.314Z,87.17
2019-06-20T21:10:46.353Z,87.10
2019-06-20T21:13:13.731Z,86.89
2019-06-20T21:15:40.756Z,86.41
2019-06-20T21:18:07.813Z,85.94
2019-06-20T21:20:34.858Z,86.32
2019-06-20T21:23:01.910Z,86.29
2019-06-20T21:25:32.031Z,86.62
2019-06-20T21:27:57.714Z,86.95
2019-06-20T21:30:24.754Z,87.13
2019-06-20T21:32:52.080Z,87.03
2019-06-20T21:35:19.145Z,86.87
2019-06-20T21:37:46.274Z,87.45
2019-06-20T21:40:13.595Z,87.61
2019-06-20T21:42:40.648Z,87.73
2019-06-20T21:45:07.943Z,87.87
2019-06-20T21:47:35.001Z,87.68
2019-06-20T21:50:02.174Z,87.38
2019-06-20T21:52:29.867Z,87.43
2019-06-20T21:54:57.156Z,87.46
2019-06-20T21:57:24.211Z,87.41
2019-06-20T21:59:51.252Z,86.49
2019-06-20T22:02:18.303Z,85.16
2019-06-20T22:04:54.700Z,84.49
2019-06-20T22:07:21.887Z,84.70
2019-06-20T22:09:48.944Z,84.90
2019-06-20T22:12:15.978Z,83.11
2019-06-20T22:14:43.326Z,82.75
2019-06-20T22:17:10.375Z,82.75
2019-06-20T22:19:37.676Z,83.59
2019-06-20T22:22:04.719Z,84.13
2019-06-20T22:24:32.149Z,84.58
2019-06-20T22:26:59.505Z,83.86
2019-06-20T22:29:26.552Z,83.69
2019-06-20T22:31:53.587Z,84.26
2019-06-20T22:34:20.650Z,84.50
2019-06-20T22:36:47.989Z,84.56
2019-06-20T22:39:15.039Z,84.62
2019-06-20T22:41:42.086Z,84.24
2019-06-20T22:44:09.439Z,82.76
2019-06-20T22:46:36.488Z,83.92
2019-06-20T22:49:03.859Z,84.19
2019-06-20T22:51:31.145Z,84.27
2019-06-20T22:53:59.282Z,84.21
2019-06-20T22:56:26.334Z,84.20
2019-06-20T22:58:53.469Z,83.91
2019-06-20T23:01:20.822Z,83.78
2019-06-20T23:03:47.920Z,83.60
2019-06-20T23:06:15.234Z,83.44
2019-06-20T23:08:42.288Z,83.69
2019-06-20T23:11:09.743Z,84.02
2019-06-20T23:13:36.796Z,83.71
2019-06-20T23:16:03.845Z,83.16
2019-06-20T23:18:31.189Z,83.61
2019-06-20T23:21:04.524Z,83.71
2019-06-20T23:23:27.627Z,83.53
2019-06-20T23:25:54.665Z,83.61
2019-06-20T23:28:21.722Z,83.82
2019-06-20T23:30:49.187Z,84.03
2019-06-20T23:33:16.539Z,84.05
2019-06-20T23:35:43.916Z,84.05
2019-06-20T23:38:11.027Z,83.47
2019-06-20T23:40:38.093Z,83.77
2019-06-20T23:43:05.152Z,84.66
2019-06-20T23:45:32.196Z,85.25
2019-06-20T23:47:59.503Z,85.53
2019-06-20T23:50:26.555Z,85.80
2019-06-20T23:52:53.849Z,86.03
2019-06-20T23:55:20.906Z,86.32
2019-06-20T23:57:47.945Z,86.48
